createdAt,value
2018-12-18T00:00:13.226Z,4.00
2018-12-18T00:02:41.772Z,4.00
2018-12-18T00:05:15.713Z,3.90
2018-12-18T00:07:44.575Z,4.00
2018-12-18T00:10:13.355Z,3.80
2018-12-18T00:12:42.126Z,3.70
2018-12-18T00:15:10.881Z,3.80
2018-12-18T00:17:39.615Z,3.90
2018-12-18T00:20:08.510Z,3.80
2018-12-18T00:22:37.252Z,3.70
2018-12-18T00:25:06.578Z,3.60
2018-12-18T00:27:35.616Z,3.70
2018-12-18T00:30:04.736Z,3.70
2018-12-18T00:32:34.153Z,3.70
2018-12-18T00:35:02.811Z,3.30
2018-12-18T00:37:31.355Z,3.40
2018-12-18T00:40:00.104Z,3.50
2018-12-18T00:42:28.625Z,3.50
2018-12-18T00:44:57.455Z,3.50
2018-12-18T00:47:26.238Z,3.60
2018-12-18T00:49:54.741Z,3.50
2018-12-18T00:52:23.324Z,3.40
2018-12-18T00:54:52.162Z,3.10
2018-12-18T00:57:20.729Z,3.10
2018-12-18T00:59:50.005Z,3.00
2018-12-18T01:02:18.625Z,3.20
2018-12-18T01:04:47.345Z,3.20
2018-12-18T01:07:16.403Z,3.30
2018-12-18T01:09:45.180Z,3.30
2018-12-18T01:12:14.010Z,3.40
2018-12-18T01:14:42.507Z,3.40
2018-12-18T01:17:10.949Z,3.40
2018-12-18T01:19:39.646Z,3.40
2018-12-18T01:22:08.252Z,3.20
2018-12-18T01:24:36.772Z,3.20
2018-12-18T01:27:05.189Z,3.30
2018-12-18T01:29:33.968Z,3.20
2018-12-18T01:32:02.590Z,3.00
2018-12-18T01:34:31.302Z,3.00
2018-12-18T01:36:59.886Z,3.20
2018-12-18T01:39:28.373Z,3.20
2018-12-18T01:41:56.883Z,3.20
2018-12-18T01:44:25.502Z,3.30
2018-12-18T01:46:53.987Z,3.40
2018-12-18T01:49:22.695Z,3.40
2018-12-18T01:51:51.333Z,3.50
2018-12-18T01:57:19.480Z,3.30
2018-12-18T01:59:48.303Z,3.30
2018-12-18T02:02:17.907Z,3.10
2018-12-18T02:04:46.367Z,3.10
2018-12-18T02:07:15.037Z,3.10
2018-12-18T02:09:43.464Z,2.80
2018-12-18T02:12:11.976Z,2.60
2018-12-18T02:14:40.650Z,2.50
2018-12-18T02:17:09.228Z,2.40
2018-12-18T02:19:37.713Z,2.50
2018-12-18T02:22:06.402Z,2.60
2018-12-18T02:24:35.071Z,2.60
2018-12-18T02:27:03.838Z,2.70
2018-12-18T02:29:32.692Z,2.80
2018-12-18T02:32:01.239Z,2.70
2018-12-18T02:34:29.688Z,2.60
2018-12-18T02:36:58.279Z,2.70
2018-12-18T02:39:26.900Z,2.80
2018-12-18T02:41:55.626Z,2.40
2018-12-18T02:44:24.108Z,2.20
2018-12-18T02:46:52.858Z,2.10
2018-12-18T02:49:21.529Z,2.30
2018-12-18T02:51:49.980Z,2.50
2018-12-18T02:54:18.599Z,2.50
2018-12-18T02:56:47.215Z,2.50
2018-12-18T02:59:15.867Z,2.40
2018-12-18T03:01:44.528Z,2.30
2018-12-18T03:04:13.098Z,2.10
2018-12-18T03:06:41.968Z,1.90
2018-12-18T03:09:10.817Z,1.80
2018-12-18T03:11:40.133Z,2.10
2018-12-18T03:14:09.031Z,2.10
2018-12-18T03:16:37.816Z,1.90
2018-12-18T03:19:06.753Z,2.10
2018-12-18T03:21:35.686Z,2.20
2018-12-18T03:24:04.335Z,2.00
2018-12-18T03:26:33.257Z,1.80
2018-12-18T03:29:02.181Z,1.70
2018-12-18T03:31:31.148Z,1.70
2018-12-18T03:33:59.991Z,1.70
2018-12-18T03:36:28.681Z,1.70
2018-12-18T03:38:57.551Z,1.70
2018-12-18T03:41:26.488Z,1.80
2018-12-18T03:43:55.466Z,1.90
2018-12-18T03:46:24.190Z,2.00
2018-12-18T03:48:52.988Z,2.20
2018-12-18T03:51:21.780Z,2.20
2018-12-18T03:53:50.585Z,2.10
2018-12-18T03:56:19.342Z,1.90
2018-12-18T03:58:48.460Z,1.80
2018-12-18T04:01:17.238Z,1.60
2018-12-18T04:03:46.040Z,1.50
2018-12-18T04:06:14.821Z,1.60
2018-12-18T04:08:43.682Z,1.60
2018-12-18T04:11:12.335Z,1.70
2018-12-18T04:13:41.267Z,1.60
2018-12-18T04:16:10.017Z,1.60
2018-12-18T04:18:38.847Z,1.70
2018-12-18T04:21:07.753Z,1.80
2018-12-18T04:23:36.563Z,1.70
2018-12-18T04:26:05.507Z,1.70
2018-12-18T04:28:34.354Z,1.70
2018-12-18T04:31:03.004Z,1.80
2018-12-18T04:33:31.723Z,2.00
2018-12-18T04:36:00.563Z,2.00
2018-12-18T04:38:29.189Z,2.20
2018-12-18T04:40:58.039Z,2.20
2018-12-18T04:43:26.717Z,2.10
2018-12-18T04:45:55.605Z,1.80
2018-12-18T04:48:24.306Z,1.70
2018-12-18T04:50:52.978Z,1.80
2018-12-18T04:53:21.881Z,2.00
2018-12-18T04:55:50.685Z,2.00
2018-12-18T04:58:19.751Z,2.00
2018-12-18T05:00:48.393Z,1.80
2018-12-18T05:03:17.450Z,1.70
2018-12-18T05:05:46.245Z,1.70
2018-12-18T05:08:15.313Z,1.70
2018-12-18T05:10:44.036Z,1.60
2018-12-18T05:13:15.584Z,1.70
2018-12-18T05:15:44.445Z,1.60
2018-12-18T05:18:13.384Z,1.70
2018-12-18T05:20:42.076Z,1.90
2018-12-18T05:23:11.015Z,1.90
2018-12-18T05:25:39.870Z,1.90
2018-12-18T05:28:08.707Z,1.80
2018-12-18T05:30:37.637Z,1.80
2018-12-18T05:33:06.631Z,2.00
2018-12-18T05:35:35.282Z,2.00
2018-12-18T05:38:03.932Z,1.90
2018-12-18T05:40:32.734Z,1.70
2018-12-18T05:43:01.491Z,1.80
2018-12-18T05:45:30.520Z,1.80
2018-12-18T05:47:59.018Z,1.80
2018-12-18T05:50:27.671Z,1.70
2018-12-18T05:52:56.200Z,1.40
2018-12-18T05:55:24.889Z,1.50
2018-12-18T05:57:53.729Z,1.50
2018-12-18T06:00:22.400Z,1.40
2018-12-18T06:02:51.150Z,1.50
2018-12-18T06:05:19.902Z,1.50
2018-12-18T06:07:48.583Z,1.60
2018-12-18T06:10:17.265Z,1.70
2018-12-18T06:12:46.116Z,1.60
2018-12-18T06:15:15.069Z,1.50
2018-12-18T06:17:43.951Z,1.80
2018-12-18T06:20:12.569Z,2.00
2018-12-18T06:22:41.215Z,2.10
2018-12-18T06:25:09.981Z,2.10
2018-12-18T06:27:38.730Z,2.30
2018-12-18T06:30:07.561Z,2.30
2018-12-18T06:32:37.191Z,2.20
2018-12-18T06:35:10.239Z,2.20
2018-12-18T06:37:37.010Z,2.30
2018-12-18T06:40:06.201Z,2.20
2018-12-18T06:42:34.680Z,2.20
2018-12-18T06:45:03.602Z,2.30
2018-12-18T06:47:32.395Z,2.30
2018-12-18T06:50:01.071Z,2.40
2018-12-18T06:52:29.611Z,2.40
2018-12-18T06:54:58.275Z,2.40
2018-12-18T06:57:26.855Z,2.40
2018-12-18T06:59:55.520Z,2.50
2018-12-18T07:02:24.226Z,2.50
2018-12-18T07:04:52.838Z,2.30
2018-12-18T07:07:21.536Z,2.10
2018-12-18T07:09:50.035Z,2.10
2018-12-18T07:12:18.516Z,2.00
2018-12-18T07:14:47.174Z,2.00
2018-12-18T07:17:15.767Z,1.80
2018-12-18T07:19:44.601Z,2.00
2018-12-18T07:22:13.367Z,2.00
2018-12-18T07:24:42.012Z,1.80
2018-12-18T07:27:10.493Z,1.80
2018-12-18T07:29:39.105Z,1.90
2018-12-18T07:32:07.692Z,2.00
2018-12-18T07:34:36.258Z,1.90
2018-12-18T07:37:04.869Z,1.90
2018-12-18T07:39:33.665Z,1.90
2018-12-18T07:42:02.257Z,1.90
2018-12-18T07:44:30.952Z,1.80
2018-12-18T07:46:59.880Z,1.80
2018-12-18T07:49:28.455Z,1.80
2018-12-18T07:51:57.067Z,1.80
2018-12-18T07:54:25.663Z,1.90
2018-12-18T07:56:54.204Z,2.00
2018-12-18T07:59:22.837Z,2.00
2018-12-18T08:01:51.474Z,1.90
2018-12-18T08:04:21.152Z,2.10
2018-12-18T08:06:50.153Z,2.20
2018-12-18T08:09:18.814Z,2.20
2018-12-18T08:11:47.437Z,2.20
2018-12-18T08:14:15.975Z,2.30
2018-12-18T08:16:44.453Z,2.30
2018-12-18T08:19:13.155Z,2.40
2018-12-18T08:21:41.644Z,2.50
2018-12-18T08:24:10.211Z,2.50
2018-12-18T08:26:38.906Z,2.40
2018-12-18T08:29:07.430Z,2.50
2018-12-18T08:31:35.920Z,2.60
2018-12-18T08:34:04.854Z,2.70
2018-12-18T08:36:33.443Z,2.80
2018-12-18T08:39:02.092Z,2.90
2018-12-18T08:41:30.796Z,2.80
2018-12-18T08:43:59.410Z,3.00
2018-12-18T08:46:28.101Z,3.10
2018-12-18T08:48:56.746Z,3.10
2018-12-18T08:51:25.326Z,3.20
2018-12-18T08:53:53.966Z,3.30
2018-12-18T08:56:22.614Z,3.40
2018-12-18T08:58:51.256Z,3.50
2018-12-18T09:01:19.864Z,3.60
2018-12-18T09:03:48.622Z,3.70
2018-12-18T09:06:17.367Z,3.80
2018-12-18T09:08:46.271Z,3.80
2018-12-18T09:11:14.871Z,4.00
2018-12-18T09:13:43.558Z,4.00
2018-12-18T09:16:17.530Z,4.10
2018-12-18T09:18:46.158Z,4.20
2018-12-18T09:21:14.745Z,4.20
2018-12-18T09:23:43.399Z,4.40
2018-12-18T09:26:11.907Z,4.40
2018-12-18T09:28:40.694Z,4.50
2018-12-18T09:31:09.340Z,4.60
2018-12-18T09:33:38.049Z,4.70
2018-12-18T09:36:06.947Z,4.80
2018-12-18T09:38:40.718Z,4.90
2018-12-18T09:41:14.826Z,5.00
2018-12-18T09:43:48.788Z,5.00
2018-12-18T09:46:17.423Z,5.10
2018-12-18T09:48:46.136Z,5.20
2018-12-18T09:51:14.832Z,5.20
2018-12-18T09:53:43.556Z,5.30
2018-12-18T09:56:12.016Z,5.30
2018-12-18T09:58:40.533Z,5.30
2018-12-18T10:01:09.178Z,5.40
2018-12-18T10:03:37.853Z,5.40
2018-12-18T10:06:06.384Z,5.50
2018-12-18T10:08:34.939Z,5.60
2018-12-18T10:11:03.689Z,5.70
2018-12-18T10:13:32.223Z,5.90
2018-12-18T10:16:00.718Z,5.90
2018-12-18T10:18:29.231Z,6.00
2018-12-18T10:20:57.758Z,6.00
2018-12-18T10:23:26.401Z,6.10
2018-12-18T10:25:54.989Z,6.20
2018-12-18T10:28:23.520Z,6.30
2018-12-18T10:30:52.276Z,6.30
2018-12-18T10:33:20.897Z,6.50
2018-12-18T10:35:49.630Z,6.60
2018-12-18T10:38:18.142Z,6.70
2018-12-18T10:40:46.894Z,6.80
2018-12-18T10:43:15.791Z,6.80
2018-12-18T10:45:44.321Z,6.90
2018-12-18T10:48:13.290Z,7.00
2018-12-18T10:50:41.846Z,7.10
2018-12-18T10:53:10.383Z,7.10
2018-12-18T10:55:39.152Z,7.20
2018-12-18T10:58:07.778Z,7.30
2018-12-18T11:00:41.737Z,7.30
2018-12-18T11:03:10.325Z,7.30
2018-12-18T11:05:38.829Z,7.30
2018-12-18T11:08:07.381Z,7.40
2018-12-18T11:10:35.923Z,7.50
2018-12-18T11:13:10.010Z,7.50
2018-12-18T11:15:38.510Z,7.40
2018-12-18T11:18:07.167Z,7.50
2018-12-18T11:20:35.710Z,7.50
2018-12-18T11:23:04.305Z,7.50
2018-12-18T11:25:33.042Z,7.50
2018-12-18T11:28:01.681Z,7.50
2018-12-18T11:30:30.108Z,7.50
2018-12-18T11:32:59.668Z,7.60
2018-12-18T11:35:28.466Z,7.60
2018-12-18T11:37:58.346Z,7.60
2018-12-18T11:40:26.807Z,7.60
2018-12-18T11:42:55.437Z,7.70
2018-12-18T11:45:24.094Z,7.80
2018-12-18T11:47:52.696Z,8.00
2018-12-18T11:50:22.075Z,8.00
2018-12-18T11:52:50.913Z,8.10
2018-12-18T11:55:19.603Z,8.00
2018-12-18T11:57:48.452Z,8.00
2018-12-18T12:00:17.993Z,8.10
2018-12-18T12:02:46.847Z,8.10
2018-12-18T12:05:15.518Z,8.10
2018-12-18T12:07:44.758Z,8.10
2018-12-18T12:10:13.626Z,8.20
2018-12-18T12:12:44.798Z,8.30
2018-12-18T12:15:14.526Z,8.30
2018-12-18T12:17:43.128Z,8.40
2018-12-18T12:20:11.801Z,8.50
2018-12-18T12:22:40.629Z,8.50
2018-12-18T12:25:10.470Z,8.50
2018-12-18T12:27:44.646Z,8.50
2018-12-18T12:30:13.557Z,8.50
2018-12-18T12:32:42.299Z,8.50
2018-12-18T12:35:11.024Z,8.50
2018-12-18T12:37:39.849Z,8.50
2018-12-18T12:40:08.903Z,8.50
2018-12-18T12:42:37.936Z,8.50
2018-12-18T12:45:06.822Z,8.40
2018-12-18T12:47:35.625Z,8.50
2018-12-18T12:50:05.479Z,8.60
2018-12-18T12:52:34.356Z,8.60
2018-12-18T12:55:03.105Z,8.60
2018-12-18T12:57:32.111Z,8.60
2018-12-18T13:00:00.723Z,8.60
2018-12-18T13:02:29.699Z,8.60
2018-12-18T13:04:58.466Z,8.70
2018-12-18T13:07:27.194Z,8.70
2018-12-18T13:09:56.081Z,8.70
2018-12-18T13:12:24.715Z,8.60
2018-12-18T13:14:53.480Z,8.50
2018-12-18T13:17:22.105Z,8.60
2018-12-18T13:19:50.738Z,8.60
2018-12-18T13:22:19.528Z,8.60
2018-12-18T13:24:48.828Z,8.70
2018-12-18T13:27:17.695Z,8.70
2018-12-18T13:29:46.791Z,8.70
2018-12-18T13:32:16.470Z,8.70
2018-12-18T13:34:45.310Z,8.70
2018-12-18T13:37:14.387Z,8.80
2018-12-18T13:39:43.492Z,8.80
2018-12-18T13:42:12.315Z,8.80
2018-12-18T13:44:41.171Z,8.80
2018-12-18T13:47:10.180Z,8.80
2018-12-18T13:49:39.026Z,8.80
2018-12-18T13:52:07.684Z,8.80
2018-12-18T13:54:36.461Z,8.80
2018-12-18T13:57:05.154Z,8.80
2018-12-18T13:59:34.003Z,8.80
2018-12-18T14:02:02.742Z,8.90
2018-12-18T14:04:31.753Z,8.90
2018-12-18T14:07:00.582Z,8.80
2018-12-18T14:09:29.332Z,8.80
2018-12-18T14:11:58.153Z,8.70
2018-12-18T14:14:27.073Z,8.70
2018-12-18T14:17:00.313Z,8.70
2018-12-18T14:19:28.923Z,8.70
2018-12-18T14:21:57.742Z,8.70
2018-12-18T14:24:27.274Z,8.70
2018-12-18T14:26:56.118Z,8.70
2018-12-18T14:29:24.863Z,8.70
2018-12-18T14:31:53.637Z,8.70
2018-12-18T14:34:22.553Z,8.60
2018-12-18T14:36:56.265Z,8.60
2018-12-18T14:39:22.925Z,8.60
2018-12-18T14:41:51.858Z,8.60
2018-12-18T14:44:20.773Z,8.50
2018-12-18T14:46:49.584Z,8.50
2018-12-18T14:49:18.585Z,8.60
2018-12-18T14:51:47.492Z,8.50
2018-12-18T14:54:16.512Z,8.50
2018-12-18T14:56:45.212Z,8.50
2018-12-18T14:59:13.699Z,8.40
2018-12-18T15:01:42.367Z,8.30
2018-12-18T15:04:10.949Z,8.40
2018-12-18T15:06:39.436Z,8.30
2018-12-18T15:09:08.182Z,8.30
2018-12-18T15:11:36.875Z,8.30
2018-12-18T15:14:05.496Z,8.30
2018-12-18T15:16:34.154Z,8.20
2018-12-18T15:19:02.684Z,8.20
2018-12-18T15:21:31.186Z,8.20
2018-12-18T15:23:59.880Z,8.10
2018-12-18T15:26:28.365Z,8.00
2018-12-18T15:28:56.888Z,7.90
2018-12-18T15:31:25.507Z,7.90
2018-12-18T15:33:54.171Z,7.70
2018-12-18T15:36:22.816Z,7.70
2018-12-18T15:38:51.586Z,7.70
2018-12-18T15:41:20.348Z,7.70
2018-12-18T15:43:48.907Z,7.60
2018-12-18T15:46:17.439Z,7.60
2018-12-18T15:48:46.109Z,7.50
2018-12-18T15:51:14.950Z,7.50
2018-12-18T15:53:43.631Z,7.40
2018-12-18T15:56:12.172Z,7.30
2018-12-18T15:58:40.642Z,7.30
2018-12-18T16:01:09.304Z,7.30
2018-12-18T16:03:37.951Z,7.20
2018-12-18T16:06:06.751Z,7.10
2018-12-18T16:08:35.223Z,7.10
2018-12-18T16:11:03.715Z,7.10
2018-12-18T16:13:32.489Z,7.10
2018-12-18T16:16:01.050Z,7.00
2018-12-18T16:18:29.619Z,7.00
2018-12-18T16:20:58.329Z,7.00
2018-12-18T16:23:26.906Z,7.00
2018-12-18T16:25:55.689Z,6.90
2018-12-18T16:28:24.408Z,6.90
2018-12-18T16:30:53.196Z,6.80
2018-12-18T16:33:21.652Z,6.80
2018-12-18T16:35:50.270Z,6.80
2018-12-18T16:38:18.759Z,6.80
2018-12-18T16:40:47.454Z,6.70
2018-12-18T16:43:15.995Z,6.60
2018-12-18T16:45:44.590Z,6.70
2018-12-18T16:48:13.207Z,6.70
2018-12-18T16:50:41.789Z,6.60
2018-12-18T16:53:10.263Z,6.50
2018-12-18T16:55:39.383Z,6.50
2018-12-18T16:58:08.082Z,6.60
2018-12-18T17:00:36.601Z,6.60
2018-12-18T17:03:05.182Z,6.50
2018-12-18T17:05:33.787Z,6.50
2018-12-18T17:08:02.348Z,6.50
2018-12-18T17:10:30.896Z,6.50
2018-12-18T17:13:30.713Z,6.50
2018-12-18T17:15:59.299Z,6.50
2018-12-18T17:18:27.979Z,6.50
2018-12-18T17:20:56.719Z,6.40
2018-12-18T17:23:25.335Z,6.30
2018-12-18T17:25:54.039Z,6.30
2018-12-18T17:28:22.639Z,6.30
2018-12-18T17:30:51.117Z,6.30
2018-12-18T17:33:19.583Z,6.30
2018-12-18T17:35:48.196Z,6.20
2018-12-18T17:38:17.053Z,6.20
2018-12-18T17:40:46.114Z,6.10
2018-12-18T17:43:14.683Z,6.10
2018-12-18T17:45:43.288Z,6.10
2018-12-18T17:48:11.764Z,6.00
2018-12-18T17:50:40.274Z,5.90
2018-12-18T17:53:09.001Z,5.90
2018-12-18T17:55:37.639Z,5.90
2018-12-18T17:58:06.302Z,5.90
2018-12-18T18:00:34.789Z,5.80
2018-12-18T18:03:03.435Z,5.90
2018-12-18T18:05:31.958Z,5.80
2018-12-18T18:08:00.581Z,5.80
2018-12-18T18:10:29.486Z,5.70
2018-12-18T18:12:58.034Z,5.60
2018-12-18T18:15:26.971Z,5.60
2018-12-18T18:17:55.540Z,5.60
2018-12-18T18:20:24.092Z,5.60
2018-12-18T18:22:52.669Z,5.60
2018-12-18T18:25:21.290Z,5.60
2018-12-18T18:27:49.917Z,5.50
2018-12-18T18:30:18.482Z,5.60
2018-12-18T18:32:46.986Z,5.70
2018-12-18T18:35:15.506Z,5.80
2018-12-18T18:37:49.491Z,5.80
2018-12-18T18:40:14.784Z,5.70
2018-12-18T18:42:43.574Z,5.60
2018-12-18T18:45:13.057Z,5.60
2018-12-18T18:47:41.822Z,5.50
2018-12-18T18:50:10.704Z,5.50
2018-12-18T18:52:39.255Z,5.50
2018-12-18T18:55:07.948Z,5.50
2018-12-18T18:57:36.503Z,5.50
2018-12-18T19:00:06.571Z,5.50
2018-12-18T19:02:35.214Z,5.50
2018-12-18T19:05:04.198Z,5.50
2018-12-18T19:07:32.764Z,5.50
2018-12-18T19:10:01.414Z,5.50
2018-12-18T19:12:30.062Z,5.40
2018-12-18T19:14:58.609Z,5.50
2018-12-18T19:17:27.132Z,5.40
2018-12-18T19:19:55.679Z,5.40
2018-12-18T19:22:25.065Z,5.30
2018-12-18T19:24:53.628Z,5.20
2018-12-18T19:27:22.292Z,5.20
2018-12-18T19:29:50.898Z,5.10
2018-12-18T19:32:19.588Z,5.20
2018-12-18T19:34:48.061Z,5.10
2018-12-18T19:37:16.619Z,5.00
2018-12-18T19:39:45.297Z,4.90
2018-12-18T19:42:14.289Z,4.80
2018-12-18T19:44:43.169Z,4.80
2018-12-18T19:47:12.294Z,5.00
2018-12-18T19:49:41.039Z,5.00
2018-12-18T19:52:09.708Z,4.80
2018-12-18T19:54:38.279Z,4.80
2018-12-18T19:57:07.069Z,4.80
2018-12-18T19:59:36.404Z,4.80
2018-12-18T20:02:05.268Z,4.70
2018-12-18T20:04:33.909Z,4.70
2018-12-18T20:07:02.636Z,4.60
2018-12-18T20:09:31.350Z,4.50
2018-12-18T20:12:00.183Z,4.40
2018-12-18T20:14:28.856Z,4.40
2018-12-18T20:16:57.717Z,4.40
2018-12-18T20:19:26.314Z,4.30
2018-12-18T20:21:55.421Z,4.30
2018-12-18T20:24:24.201Z,4.10
2018-12-18T20:26:53.081Z,4.20
2018-12-18T20:29:22.005Z,4.20
2018-12-18T20:31:50.755Z,4.10
2018-12-18T20:34:19.528Z,4.10
2018-12-18T20:36:48.100Z,4.00
2018-12-18T20:39:16.851Z,4.00
2018-12-18T20:41:45.536Z,4.10
2018-12-18T20:44:14.342Z,4.10
2018-12-18T20:46:43.157Z,4.00
2018-12-18T20:49:11.723Z,3.90
2018-12-18T20:51:40.527Z,3.80
2018-12-18T20:54:09.010Z,3.70
2018-12-18T20:56:37.582Z,3.70
2018-12-18T20:59:06.414Z,3.70
2018-12-18T21:01:35.429Z,3.80
2018-12-18T21:04:04.258Z,3.80
2018-12-18T21:06:32.940Z,3.80
2018-12-18T21:09:02.257Z,3.60
2018-12-18T21:11:31.066Z,3.60
2018-12-18T21:13:59.873Z,3.70
2018-12-18T21:16:28.647Z,3.60
2018-12-18T21:18:57.516Z,3.50
2018-12-18T21:21:26.472Z,3.60
2018-12-18T21:23:55.387Z,3.60
2018-12-18T21:26:24.233Z,3.60
2018-12-18T21:28:52.786Z,3.70
2018-12-18T21:31:21.397Z,3.80
2018-12-18T21:33:50.216Z,3.80
2018-12-18T21:36:18.921Z,3.90
2018-12-18T21:38:47.868Z,3.90
2018-12-18T21:41:16.458Z,3.80
2018-12-18T21:43:45.535Z,4.00
2018-12-18T21:46:14.354Z,3.90
2018-12-18T21:48:43.063Z,3.80
2018-12-18T21:51:12.080Z,3.60
2018-12-18T21:53:40.915Z,3.50
2018-12-18T21:56:10.271Z,3.40
2018-12-18T21:58:39.259Z,3.40
2018-12-18T22:01:08.337Z,3.40
2018-12-18T22:03:37.597Z,3.50
2018-12-18T22:06:06.723Z,3.40
2018-12-18T22:08:36.930Z,3.50
2018-12-18T22:11:06.353Z,3.50
2018-12-18T22:13:35.396Z,3.50
2018-12-18T22:16:04.127Z,3.40
2018-12-18T22:18:33.304Z,3.50
2018-12-18T22:21:02.530Z,3.60
2018-12-18T22:23:31.364Z,3.40
2018-12-18T22:26:00.120Z,3.50
2018-12-18T22:28:28.960Z,3.40
2018-12-18T22:30:57.938Z,3.50
2018-12-18T22:33:26.832Z,3.50
2018-12-18T22:35:55.508Z,3.50
2018-12-18T22:38:24.368Z,3.50
2018-12-18T22:40:53.152Z,3.60
2018-12-18T22:43:22.203Z,3.60
2018-12-18T22:45:50.859Z,3.50
2018-12-18T22:48:19.518Z,3.60
2018-12-18T22:50:48.791Z,3.70
2018-12-18T22:53:17.757Z,3.60
2018-12-18T22:55:46.514Z,3.60
2018-12-18T22:58:15.168Z,3.60
2018-12-18T23:00:53.596Z,3.70
2018-12-18T23:03:22.358Z,3.70
2018-12-18T23:05:51.152Z,3.80
2018-12-18T23:08:19.944Z,3.80
2018-12-18T23:10:48.738Z,3.80
2018-12-18T23:13:23.359Z,3.90
2018-12-18T23:15:52.185Z,3.80
2018-12-18T23:18:20.860Z,3.80
2018-12-18T23:20:49.719Z,3.80
2018-12-18T23:23:18.335Z,3.60
2018-12-18T23:25:47.279Z,3.60
2018-12-18T23:28:16.048Z,3.50
2018-12-18T23:30:45.091Z,3.50
2018-12-18T23:33:14.126Z,3.40
2018-12-18T23:35:42.822Z,3.40
2018-12-18T23:38:11.687Z,3.40
2018-12-18T23:40:40.549Z,3.50
2018-12-18T23:43:09.316Z,3.50
2018-12-18T23:45:38.385Z,3.40
2018-12-18T23:48:07.445Z,3.40
2018-12-18T23:50:36.187Z,3.30
2018-12-18T23:53:04.739Z,3.40
2018-12-18T23:55:33.214Z,3.50
2018-12-18T23:58:01.824Z,3.50
